{
  "fields": [{"type":"int","id":"_id"},{"info":{"type_override":"text","notes":"Hora UTC de lectura de los datos (AAAA-MM-DD HH:mm:SS)(+1 para CET invierno, +2 para CET verano)","label":"date"},"type":"text","id":"TIMESTAMP"},{"info":{"type_override":"text","notes":"Record Number - identificador del registro","label":"int"},"type":"text","id":"RECORD"},{"info":{"type_override":"text","notes":"Velocidad media del viento en el periodo de 10 minutos leído","label":"float"},"type":"text","id":"VV_S_WVT"},{"info":{"type_override":"text","notes":"Dirección media del viento en el periodo de 10 minutos leído","label":"float"},"type":"text","id":"DV_D1_WVT"},{"info":{"type_override":"text","notes":"Velocidad máxima del viento en el periodo de 10 minutos leído","label":"float"},"type":"text","id":"VV10m3Seg_Max"},{"info":{"type_override":"text","notes":"Dirección de la racha máxima del viento en el periodo de 10 minutos leído","label":"text"},"type":"text","id":"DV10m3Seg_SMM"},{"info":{"type_override":"text","notes":"Presión atmosférica media en el periodo de 10 minutos leído","label":"text"},"type":"text","id":"PRE_Avg"},{"info":{"type_override":"text","notes":"Temperatura del aire media en el periodo de 10 minutos leído","label":"text"},"type":"text","id":"TEM_Avg"},{"info":{"type_override":"text","notes":"Humedad relativa del aire promedio en el periodo de 10 minutos leído","label":"text"},"type":"text","id":"HUM_Avg"},{"info":{"type_override":"text","notes":"Radiación solar media en el periodo de 10 minutos leído","label":"text"},"type":"text","id":"RAD_Avg"},{"info":{"type_override":"text","notes":"Precipitación acumulada en el periodo de 10 minutos leído","label":"text"},"type":"text","id":"PLU_Tot"}],
  "records": [
    [1752322,"2026-09-03 00:00:00","38158","1.151","207.3","1.601","205.9","NAN","NAN","NAN","NAN","NAN"],
    [1752323,"2026-09-03 00:10:00","38159","1.046","208.9","1.405","209.3","NAN","NAN","NAN","NAN","NAN"],
    [1752324,"2026-09-03 00:20:00","38160","1.008","209.6","1.5030000000000001","209.5","NAN","NAN","NAN","NAN","NAN"],
    [1752325,"2026-09-03 00:30:00","38161","0.541","209.9","1.176","210.0","NAN","NAN","NAN","NAN","NAN"],
    [1752326,"2026-09-03 00:40:00","38162","0.0","0.0","0.0","0.0","NAN","NAN","NAN","NAN","NAN"],
    [1752327,"2026-09-03 00:50:00","38163","0.002","203.2","0.22899999999999998","203.0","NAN","NAN","NAN","NAN","NAN"],
    [1752328,"2026-09-03 01:00:00","38164","0.0","0.0","0.0","0.0","NAN","NAN","NAN","NAN","NAN"],
    [1752329,"2026-09-03 01:10:00","38165","0.0","202.4","0.033","202.4","NAN","NAN","NAN","NAN","NAN"],
    [1752330,"2026-09-03 01:20:00","38166","0.76","197.6","1.209","193.7","NAN","NAN","NAN","NAN","NAN"],
    [1752331,"2026-09-03 01:30:00","38167","0.76","194.2","1.307","193.8","NAN","NAN","NAN","NAN","NAN"],
    [1752332,"2026-09-03 01:40:00","38168","0.363","194.8","0.8170000000000001","194.5","NAN","NAN","NAN","NAN","NAN"],
    [1752333,"2026-09-03 01:50:00","38169","0.026000000000000002","195.1","0.327","195.1","NAN","NAN","NAN","NAN","NAN"],
    [1752334,"2026-09-03 02:00:00","38170","0.02","194.4","0.392","194.4","NAN","NAN","NAN","NAN","NAN"],
    [1752335,"2026-09-03 02:10:00","38171","0.0","0.0","0.0","0.0","NAN","NAN","NAN","NAN","NAN"],
    [1752336,"2026-09-03 02:20:00","38172","0.002","194.3","0.131","193.3","NAN","NAN","NAN","NAN","NAN"],
    [1752337,"2026-09-03 02:30:00","38173","0.0","0.0","0.0","0.0","NAN","NAN","NAN","NAN","NAN"],
    [1752338,"2026-09-03 02:40:00","38174","0.0","0.0","0.0","0.0","NAN","NAN","NAN","NAN","NAN"],
    [1752339,"2026-09-03 02:50:00","38175","0.0","0.0","0.0","0.0","NAN","NAN","NAN","NAN","NAN"],
    [1752340,"2026-09-03 03:00:00","38176","0.0","0.0","0.0","0.0","NAN","NAN","NAN","NAN","NAN"],
    [1752341,"2026-09-03 03:10:00","38177","0.0","0.0","0.0","0.0","NAN","NAN","NAN","NAN","NAN"],
    [1752342,"2026-09-03 03:20:00","38178","0.0","0.0","0.0","0.0","NAN","NAN","NAN","NAN","NAN"],
    [1752343,"2026-09-03 03:30:00","38179","0.0","0.0","0.0","0.0","NAN","NAN","NAN","NAN","NAN"],
    [1752344,"2026-09-03 03:40:00","38180","0.0","0.0","0.0","0.0","NAN","NAN","NAN","NAN","NAN"],
    [1752345,"2026-09-03 03:50:00","38181","0.0","0.0","0.0","0.0","NAN","NAN","NAN","NAN","NAN"],
    [1752346,"2026-09-03 04:00:00","38182","0.275","197.6","0.653","199.8","NAN","NAN","NAN","NAN","NAN"],
    [1752347,"2026-09-03 04:10:00","38183","0.779","202.3","1.176","206.0","NAN","NAN","NAN","NAN","NAN"],
    [1752348,"2026-09-03 04:20:00","38184","0.862","206.9","1.111","206.6","NAN","NAN","NAN","NAN","NAN"],
    [1752349,"2026-09-03 04:30:00","38185","0.677","207.9","0.882","207.7","NAN","NAN","NAN","NAN","NAN"],
    [1752350,"2026-09-03 04:40:00","38186","0.564","208.0","0.882","208.1","NAN","NAN","NAN","NAN","NAN"],
    [1752351,"2026-09-03 04:50:00","38187","0.5870000000000001","208.1","0.8490000000000001","208.1","NAN","NAN","NAN","NAN","NAN"],
    [1752352,"2026-09-03 05:00:00","38188","0.648","208.2","0.784","208.2","NAN","NAN","NAN","NAN","NAN"],
    [1752353,"2026-09-03 05:10:00","38189","0.915","207.8","1.209","208.9","NAN","NAN","NAN","NAN","NAN"],
    [1752354,"2026-09-03 05:20:00","38190","0.9279999999999999","205.0","1.111","205.8","NAN","NAN","NAN","NAN","NAN"],
    [1752355,"2026-09-03 05:30:00","38191","0.698","208.2","1.045","207.8","NAN","NAN","NAN","NAN","NAN"],
    [1752356,"2026-09-03 05:40:00","38192","0.499","208.3","0.7509999999999999","208.7","NAN","NAN","NAN","NAN","NAN"],
    [1752357,"2026-09-03 05:50:00","38193","0.13699999999999998","207.2","0.588","207.2","NAN","NAN","NAN","NAN","NAN"],
    [1752358,"2026-09-03 06:00:00","38194","0.0","0.0","0.0","0.0","NAN","NAN","NAN","NAN","NAN"],
    [1752359,"2026-09-03 06:10:00","38195","0.0","0.0","0.0","0.0","NAN","NAN","NAN","NAN","NAN"],
    [1752360,"2026-09-03 06:20:00","38196","0.0","0.0","0.0","0.0","NAN","NAN","NAN","NAN","NAN"],
    [1752361,"2026-09-03 06:30:00","38197","0.096","200.2","0.882","202.2","NAN","NAN","NAN","NAN","NAN"],
    [1752362,"2026-09-03 06:40:00","38198","0.516","199.0","1.274","193.0","NAN","NAN","NAN","NAN","NAN"],
    [1752363,"2026-09-03 06:50:00","38199","1.3130000000000002","193.1","1.797","193.5","NAN","NAN","NAN","NAN","NAN"],
    [1752364,"2026-09-03 07:00:00","38200","0.753","192.0","1.3719999999999999","192.5","NAN","NAN","NAN","NAN","NAN"],
    [1752365,"2026-09-03 07:10:00","38201","0.129","191.9","0.49","191.9","NAN","NAN","NAN","NAN","NAN"],
    [1752366,"2026-09-03 07:20:00","38202","0.495","191.8","1.2409999999999999","191.8","NAN","NAN","NAN","NAN","NAN"],
    [1752367,"2026-09-03 07:30:00","38203","1.063","191.6","1.3719999999999999","191.5","NAN","NAN","NAN","NAN","NAN"],
    [1752368,"2026-09-03 07:40:00","38204","1.081","191.3","1.307","191.2","NAN","NAN","NAN","NAN","NAN"],
    [1752369,"2026-09-03 07:50:00","38205","1.158","191.1","1.4369999999999998","191.2","NAN","NAN","NAN","NAN","NAN"],
    [1752370,"2026-09-03 08:00:00","38206","0.8490000000000001","190.8","0.98","190.8","NAN","NAN","NAN","NAN","NAN"],
    [1752371,"2026-09-03 08:10:00","38207","0.42100000000000004","190.8","0.882","190.8","NAN","NAN","NAN","NAN","NAN"],
    [1752372,"2026-09-03 08:20:00","38208","0.439","190.7","0.784","190.8","NAN","NAN","NAN","NAN","NAN"],
    [1752373,"2026-09-03 08:30:00","38209","0.0","0.0","0.0","0.0","NAN","NAN","NAN","NAN","NAN"],
    [1752374,"2026-09-03 08:40:00","38210","0.002","177.7","0.163","177.7","NAN","NAN","NAN","NAN","NAN"],
    [1752375,"2026-09-03 08:50:00","38211","0.49700000000000005","161.1","0.882","157.0","NAN","NAN","NAN","NAN","NAN"],
    [1752376,"2026-09-03 09:00:00","38212","0.5710000000000001","155.6","0.98","155.6","NAN","NAN","NAN","NAN","NAN"],
    [1752377,"2026-09-03 09:10:00","38213","0.9229999999999999","155.5","1.209","155.4","NAN","NAN","NAN","NAN","NAN"],
    [1752378,"2026-09-03 09:20:00","38214","1.229","155.3","1.633","155.0","NAN","NAN","NAN","NAN","NAN"],
    [1752379,"2026-09-03 09:30:00","38215","1.237","153.9","1.535","155.5","NAN","NAN","NAN","NAN","NAN"],
    [1752380,"2026-09-03 09:40:00","38216","1.127","144.4","1.535","144.0","NAN","NAN","NAN","NAN","NAN"],
    [1752381,"2026-09-03 09:50:00","38217","1.115","148.5","1.5030000000000001","156.9","NAN","NAN","NAN","NAN","NAN"],
    [1752382,"2026-09-03 10:00:00","38218","1.311","156.3","1.633","155.5","NAN","NAN","NAN","NAN","NAN"],
    [1752383,"2026-09-03 10:10:00","38219","1.611","156.1","1.8619999999999999","158.5","NAN","NAN","NAN","NAN","NAN"],
    [1752384,"2026-09-03 10:20:00","38220","1.7590000000000001","144.5","2.156","144.4","NAN","NAN","NAN","NAN","NAN"],
    [1752385,"2026-09-03 10:30:00","38221","1.716","142.6","2.287","141.2","NAN","NAN","NAN","NAN","NAN"],
    [1752386,"2026-09-03 10:40:00","38222","1.804","141.1","2.352","139.6","NAN","NAN","NAN","NAN","NAN"],
    [1752387,"2026-09-03 10:50:00","38223","2.231","146.5","2.679","144.6","NAN","NAN","NAN","NAN","NAN"],
    [1752388,"2026-09-03 11:00:00","38224","2.148","152.0","2.5810000000000004","151.9","NAN","NAN","NAN","NAN","NAN"],
    [1752389,"2026-09-03 11:10:00","38225","2.654","169.1","3.201","180.6","NAN","NAN","NAN","NAN","NAN"],
    [1752390,"2026-09-03 11:20:00","38226","3.4589999999999996","185.9","3.855","187.8","NAN","NAN","NAN","NAN","NAN"],
    [1752391,"2026-09-03 11:30:00","38227","3.5839999999999996","190.1","4.181","193.8","NAN","NAN","NAN","NAN","NAN"],
    [1752392,"2026-09-03 11:40:00","38228","4.131","190.2","4.704","190.8","NAN","NAN","NAN","NAN","NAN"],
    [1752393,"2026-09-03 11:50:00","38229","4.271","185.5","4.671","184.8","NAN","NAN","NAN","NAN","NAN"],
    [1752394,"2026-09-03 12:00:00","38230","4.051","182.8","5.096","189.3","NAN","NAN","NAN","NAN","NAN"],
    [1752395,"2026-09-03 12:10:00","38231","4.835","191.9","5.357","194.4","NAN","NAN","NAN","NAN","NAN"],
    [1752396,"2026-09-03 12:20:00","38232","4.919","192.4","5.586","189.6","NAN","NAN","NAN","NAN","NAN"],
    [1752397,"2026-09-03 12:30:00","38233","4.637","186.1","5.521","189.5","NAN","NAN","NAN","NAN","NAN"],
    [1752398,"2026-09-03 12:40:00","38234","4.99","183.0","5.684","190.7","NAN","NAN","NAN","NAN","NAN"],
    [1752399,"2026-09-03 12:50:00","38235","5.109","185.5","6.011","185.3","NAN","NAN","NAN","NAN","NAN"],
    [1752400,"2026-09-03 13:00:00","38236","4.947","184.1","5.586","181.2","NAN","NAN","NAN","NAN","NAN"],
    [1752401,"2026-09-03 13:10:00","38237","5.547000000000001","187.9","6.37","188.3","NAN","NAN","NAN","NAN","NAN"],
    [1752402,"2026-09-03 13:20:00","38238","6.537999999999999","189.6","7.317","193.5","NAN","NAN","NAN","NAN","NAN"],
    [1752403,"2026-09-03 13:30:00","38239","6.581","192.1","7.382999999999999","190.9","NAN","NAN","NAN","NAN","NAN"],
    [1752404,"2026-09-03 13:40:00","38240","6.816","193.0","7.775","193.7","NAN","NAN","NAN","NAN","NAN"],
    [1752405,"2026-09-03 13:50:00","38241","6.837999999999999","193.8","7.905","196.6","NAN","NAN","NAN","NAN","NAN"],
    [1752406,"2026-09-03 14:00:00","38242","7.2829999999999995","195.3","8.62","193.3","NAN","NAN","NAN","NAN","NAN"],
    [1752407,"2026-09-03 14:10:00","38243","7.402","194.8","8.46","191.9","NAN","NAN","NAN","NAN","NAN"],
    [1752408,"2026-09-03 14:20:00","38244","7.619","201.0","8.95","201.0","NAN","NAN","NAN","NAN","NAN"],
    [1752409,"2026-09-03 14:30:00","38245","7.348","199.6","8.69","200.4","NAN","NAN","NAN","NAN","NAN"],
    [1752410,"2026-09-03 14:40:00","38246","7.5089999999999995","195.0","8.75","196.2","NAN","NAN","NAN","NAN","NAN"],
    [1752411,"2026-09-03 14:50:00","38247","7.695","201.7","9.34","203.2","NAN","NAN","NAN","NAN","NAN"],
    [1752412,"2026-09-03 15:00:00","38248","7.212000000000001","203.4","9.21","204.9","NAN","NAN","NAN","NAN","NAN"],
    [1752413,"2026-09-03 15:10:00","38249","8.0","198.4","9.08","199.8","NAN","NAN","NAN","NAN","NAN"],
    [1752414,"2026-09-03 15:20:00","38250","8.49","198.1","9.9","193.4","NAN","NAN","NAN","NAN","NAN"],
    [1752415,"2026-09-03 15:30:00","38251","8.39","202.9","10.29","200.8","NAN","NAN","NAN","NAN","NAN"],
    [1752416,"2026-09-03 15:40:00","38252","6.572","214.5","9.57","195.4","NAN","NAN","NAN","NAN","NAN"],
    [1752417,"2026-09-03 15:50:00","38253","6.254","209.7","9.21","196.8","NAN","NAN","NAN","NAN","NAN"],
    [1752418,"2026-09-03 16:00:00","38254","6.522","210.4","9.41","201.5","NAN","NAN","NAN","NAN","NAN"],
    [1752419,"2026-09-03 16:10:00","38255","6.066","211.4","9.7","205.9","NAN","NAN","NAN","NAN","NAN"],
    [1752420,"2026-09-03 16:20:00","38256","5.652","218.7","8.53","228.1","NAN","NAN","NAN","NAN","NAN"],
    [1752421,"2026-09-03 16:30:00","38257","5.959","214.3","8.46","220.9","NAN","NAN","NAN","NAN","NAN"],
    [1752422,"2026-09-03 16:40:00","38258","5.083","219.2","8.07","228.2","NAN","NAN","NAN","NAN","NAN"],
    [1752423,"2026-09-03 16:50:00","38259","4.295","222.6","6.86","221.6","NAN","NAN","NAN","NAN","NAN"],
    [1752424,"2026-09-03 17:00:00","38260","5.547000000000001","221.7","9.18","220.5","NAN","NAN","NAN","NAN","NAN"],
    [1752425,"2026-09-03 17:10:00","38261","4.914","216.5","8.2","213.3","NAN","NAN","NAN","NAN","NAN"],
    [1752426,"2026-09-03 17:20:00","38262","4.876","218.9","7.218999999999999","219.6","NAN","NAN","NAN","NAN","NAN"],
    [1752427,"2026-09-03 17:30:00","38263","4.697","218.1","7.317","212.1","NAN","NAN","NAN","NAN","NAN"],
    [1752428,"2026-09-03 17:40:00","38264","5.218","212.5","7.938","217.1","NAN","NAN","NAN","NAN","NAN"],
    [1752429,"2026-09-03 17:50:00","38265","5.138","216.0","7.154","216.5","NAN","NAN","NAN","NAN","NAN"],
    [1752430,"2026-09-03 18:00:00","38266","4.841","216.7","7.121","224.7","NAN","NAN","NAN","NAN","NAN"],
    [1752431,"2026-09-03 18:10:00","38267","5.254","220.1","7.742000000000001","212.2","NAN","NAN","NAN","NAN","NAN"],
    [1752432,"2026-09-03 18:20:00","38268","5.03","220.9","7.415","219.7","NAN","NAN","NAN","NAN","NAN"],
    [1752433,"2026-09-03 18:30:00","38269","4.564","220.1","6.86","228.5","NAN","NAN","NAN","NAN","NAN"],
    [1752434,"2026-09-03 18:40:00","38270","4.034","226.7","6.893","236.7","NAN","NAN","NAN","NAN","NAN"],
    [1752435,"2026-09-03 18:50:00","38271","4.083","230.7","7.252000000000001","228.4","NAN","NAN","NAN","NAN","NAN"],
    [1752436,"2026-09-03 19:00:00","38272","3.447","226.5","6.9910000000000005","229.9","NAN","NAN","NAN","NAN","NAN"],
    [1752437,"2026-09-03 19:10:00","38273","4.185","229.6","6.599","225.4","NAN","NAN","NAN","NAN","NAN"],
    [1752438,"2026-09-03 19:20:00","38274","4.041","233.2","5.815","237.3","NAN","NAN","NAN","NAN","NAN"],
    [1752439,"2026-09-03 19:30:00","38275","4.321000000000001","235.4","6.697","237.2","NAN","NAN","NAN","NAN","NAN"],
    [1752440,"2026-09-03 19:40:00","38276","4.486000000000001","235.6","6.86","249.8","NAN","NAN","NAN","NAN","NAN"],
    [1752441,"2026-09-03 19:50:00","38277","3.326","232.3","5.619","226.9","NAN","NAN","NAN","NAN","NAN"],
    [1752442,"2026-09-03 20:00:00","38278","4.127","240.3","6.697","235.3","NAN","NAN","NAN","NAN","NAN"],
    [1752443,"2026-09-03 20:10:00","38279","5.167000000000001","237.0","7.285","228.1","NAN","NAN","NAN","NAN","NAN"],
    [1752444,"2026-09-03 20:20:00","38280","5.5489999999999995","239.2","8.0","243.6","NAN","NAN","NAN","NAN","NAN"],
    [1752445,"2026-09-03 20:30:00","38281","5.696000000000001","239.5","7.546","235.9","NAN","NAN","NAN","NAN","NAN"],
    [1752446,"2026-09-03 20:40:00","38282","3.7230000000000003","242.2","6.566","239.7","NAN","NAN","NAN","NAN","NAN"],
    [1752447,"2026-09-03 20:50:00","38283","3.5269999999999997","240.1","5.455","229.3","NAN","NAN","NAN","NAN","NAN"],
    [1752448,"2026-09-03 21:00:00","38284","4.518","236.2","6.7620000000000005","238.1","NAN","NAN","NAN","NAN","NAN"],
    [1752449,"2026-09-03 21:10:00","38285","4.471","236.1","7.415","232.8","NAN","NAN","NAN","NAN","NAN"],
    [1752450,"2026-09-03 21:20:00","38286","3.998","233.7","6.337000000000001","233.7","NAN","NAN","NAN","NAN","NAN"],
    [1752451,"2026-09-03 21:30:00","38287","4.271","239.3","6.0760000000000005","235.5","NAN","NAN","NAN","NAN","NAN"],
    [1752452,"2026-09-03 21:40:00","38288","3.139","253.4","6.501","257.9","NAN","NAN","NAN","NAN","NAN"],
    [1752453,"2026-09-03 21:50:00","38289","2.648","254.2","4.638999999999999","256.7","NAN","NAN","NAN","NAN","NAN"],
    [1752454,"2026-09-03 22:00:00","38290","3.4360000000000004","264.1","6.337000000000001","267.3","NAN","NAN","NAN","NAN","NAN"],
    [1752455,"2026-09-03 22:10:00","38291","3.1830000000000003","260.9","5.619","250.8","NAN","NAN","NAN","NAN","NAN"],
    [1752456,"2026-09-03 22:20:00","38292","4.019","261.3","6.109","256.7","NAN","NAN","NAN","NAN","NAN"],
    [1752457,"2026-09-03 22:30:00","38293","3.62","265.2","6.337000000000001","257.1","NAN","NAN","NAN","NAN","NAN"],
    [1752458,"2026-09-03 22:40:00","38294","3.3360000000000003","266.9","5.651","261.4","NAN","NAN","NAN","NAN","NAN"],
    [1752459,"2026-09-03 22:50:00","38295","3.6430000000000002","267.0","6.239","269.3","NAN","NAN","NAN","NAN","NAN"],
    [1752460,"2026-09-03 23:00:00","38296","4.1080000000000005","263.9","6.011","262.9","NAN","NAN","NAN","NAN","NAN"],
    [1752461,"2026-09-03 23:10:00","38297","2.998","257.7","5.096","258.1","NAN","NAN","NAN","NAN","NAN"],
    [1752462,"2026-09-03 23:20:00","38298","3.3480000000000003","261.3","5.063","256.7","NAN","NAN","NAN","NAN","NAN"],
    [1752463,"2026-09-03 23:30:00","38299","2.448","267.3","4.802","254.7","NAN","NAN","NAN","NAN","NAN"],
    [1752464,"2026-09-03 23:40:00","38300","2.302","267.3","4.345","267.2","NAN","NAN","NAN","NAN","NAN"],
    [1752465,"2026-09-03 23:50:00","38301","2.28","265.2","4.475","278.7","NAN","NAN","NAN","NAN","NAN"],
    [1752466,"2026-09-04 00:00:00","38302","2.63","270.1","5.031000000000001","268.2","NAN","NAN","NAN","NAN","NAN"],
    [1752467,"2026-09-04 00:10:00","38303","2.245","266.8","4.1160000000000005","260.3","NAN","NAN","NAN","NAN","NAN"],
    [1752468,"2026-09-04 00:20:00","38304","2.5469999999999997","268.3","4.867","273.9","NAN","NAN","NAN","NAN","NAN"],
    [1752469,"2026-09-04 00:30:00","38305","1.8519999999999999","275.0","3.7239999999999998","287.1","NAN","NAN","NAN","NAN","NAN"],
    [1752470,"2026-09-04 00:40:00","38306","1.462","280.6","3.593","282.7","NAN","NAN","NAN","NAN","NAN"],
    [1752471,"2026-09-04 00:50:00","38307","1.534","275.7","3.463","269.0","NAN","NAN","NAN","NAN","NAN"],
    [1752472,"2026-09-04 01:00:00","38308","1.577","271.7","3.103","273.3","NAN","NAN","NAN","NAN","NAN"],
    [1752473,"2026-09-04 01:10:00","38309","1.381","271.8","3.6260000000000003","288.1","NAN","NAN","NAN","NAN","NAN"],
    [1752474,"2026-09-04 01:20:00","38310","2.8819999999999997","268.9","5.129","264.4","NAN","NAN","NAN","NAN","NAN"],
    [1752475,"2026-09-04 01:30:00","38311","2.984","270.7","5.096","253.2","NAN","NAN","NAN","NAN","NAN"],
    [1752476,"2026-09-04 01:40:00","38312","2.633","267.1","5.39","272.9","NAN","NAN","NAN","NAN","NAN"],
    [1752477,"2026-09-04 01:50:00","38313","3.2239999999999998","273.3","5.815","275.5","NAN","NAN","NAN","NAN","NAN"],
    [1752478,"2026-09-04 02:00:00","38314","2.565","269.5","5.357","268.5","NAN","NAN","NAN","NAN","NAN"],
    [1752479,"2026-09-04 02:10:00","38315","2.4659999999999997","271.2","4.541","269.1","NAN","NAN","NAN","NAN","NAN"],
    [1752480,"2026-09-04 02:20:00","38316","1.59","270.9","3.397","251.1","NAN","NAN","NAN","NAN","NAN"],
    [1752481,"2026-09-04 02:30:00","38317","2.45","258.2","3.822","259.7","NAN","NAN","NAN","NAN","NAN"],
    [1752482,"2026-09-04 02:40:00","38318","1.861","242.7","3.299","261.1","NAN","NAN","NAN","NAN","NAN"],
    [1752483,"2026-09-04 02:50:00","38319","2.106","249.3","3.5610000000000004","270.3","NAN","NAN","NAN","NAN","NAN"],
    [1752484,"2026-09-04 03:00:00","38320","1.955","245.4","3.332","259.6","NAN","NAN","NAN","NAN","NAN"],
    [1752485,"2026-09-04 03:10:00","38321","2.503","255.4","4.181","268.5","NAN","NAN","NAN","NAN","NAN"],
    [1752486,"2026-09-04 03:20:00","38322","1.6840000000000002","226.8","2.7110000000000003","217.0","NAN","NAN","NAN","NAN","NAN"],
    [1752487,"2026-09-04 03:30:00","38323","2.0140000000000002","227.0","3.005","234.1","NAN","NAN","NAN","NAN","NAN"],
    [1752488,"2026-09-04 03:40:00","38324","1.905","218.9","2.613","215.3","NAN","NAN","NAN","NAN","NAN"],
    [1752489,"2026-09-04 03:50:00","38325","1.787","227.6","2.679","222.7","NAN","NAN","NAN","NAN","NAN"],
    [1752490,"2026-09-04 04:00:00","38326","1.956","217.1","2.7439999999999998","218.6","NAN","NAN","NAN","NAN","NAN"],
    [1752491,"2026-09-04 04:10:00","38327","1.895","225.2","3.1689999999999996","221.9","NAN","NAN","NAN","NAN","NAN"],
    [1752492,"2026-09-04 04:20:00","38328","1.1079999999999999","227.3","2.0580000000000003","224.8","NAN","NAN","NAN","NAN","NAN"],
    [1752493,"2026-09-04 04:30:00","38329","2.2030000000000003","229.9","3.201","245.8","NAN","NAN","NAN","NAN","NAN"],
    [1752494,"2026-09-04 04:40:00","38330","2.516","231.2","3.6260000000000003","237.1","NAN","NAN","NAN","NAN","NAN"],
    [1752495,"2026-09-04 04:50:00","38331","2.295","230.0","2.94","235.0","NAN","NAN","NAN","NAN","NAN"],
    [1752496,"2026-09-04 05:00:00","38332","1.44","245.9","2.9730000000000003","254.0","NAN","NAN","NAN","NAN","NAN"],
    [1752497,"2026-09-04 05:10:00","38333","1.671","206.3","3.103","193.6","NAN","NAN","NAN","NAN","NAN"],
    [1752498,"2026-09-04 05:20:00","38334","1.652","218.0","2.679","223.2","NAN","NAN","NAN","NAN","NAN"],
    [1752499,"2026-09-04 05:30:00","38335","1.8330000000000002","236.4","2.7439999999999998","234.9","NAN","NAN","NAN","NAN","NAN"],
    [1752500,"2026-09-04 05:40:00","38336","2.0","232.4","3.071","230.1","NAN","NAN","NAN","NAN","NAN"],
    [1752501,"2026-09-04 05:50:00","38337","2.639","239.2","4.41","229.8","NAN","NAN","NAN","NAN","NAN"],
    [1752502,"2026-09-04 06:00:00","38338","1.53","262.5","3.855","264.4","NAN","NAN","NAN","NAN","NAN"],
    [1752503,"2026-09-04 06:10:00","38339","1.251","268.5","4.508","268.4","NAN","NAN","NAN","NAN","NAN"],
    [1752504,"2026-09-04 06:20:00","38340","1.666","259.9","4.181","257.1","NAN","NAN","NAN","NAN","NAN"],
    [1752505,"2026-09-04 06:30:00","38341","1.8730000000000002","235.1","3.822","229.7","NAN","NAN","NAN","NAN","NAN"],
    [1752506,"2026-09-04 06:40:00","38342","2.6430000000000002","252.2","4.508","240.8","NAN","NAN","NAN","NAN","NAN"],
    [1752507,"2026-09-04 06:50:00","38343","3.1430000000000002","257.8","4.737","249.6","NAN","NAN","NAN","NAN","NAN"],
    [1752508,"2026-09-04 07:00:00","38344","2.024","258.4","4.051","265.0","NAN","NAN","NAN","NAN","NAN"],
    [1752509,"2026-09-04 07:10:00","38345","1.669","258.8","3.234","256.1","NAN","NAN","NAN","NAN","NAN"],
    [1752510,"2026-09-04 07:20:00","38346","2.287","222.1","3.6910000000000003","226.2","NAN","NAN","NAN","NAN","NAN"],
    [1752511,"2026-09-04 07:30:00","38347","2.207","216.6","3.43","229.1","NAN","NAN","NAN","NAN","NAN"],
    [1752512,"2026-09-04 07:40:00","38348","2.785","232.8","3.92","240.9","NAN","NAN","NAN","NAN","NAN"],
    [1752513,"2026-09-04 07:50:00","38349","1.194","228.3","2.94","240.8","NAN","NAN","NAN","NAN","NAN"],
    [1752514,"2026-09-04 08:00:00","38350","1.315","225.9","2.5810000000000004","209.6","NAN","NAN","NAN","NAN","NAN"],
    [1752515,"2026-09-04 08:10:00","38351","1.167","206.0","2.156","203.4","NAN","NAN","NAN","NAN","NAN"],
    [1752516,"2026-09-04 08:20:00","38352","0.9309999999999999","179.7","1.568","191.7","NAN","NAN","NAN","NAN","NAN"],
    [1752517,"2026-09-04 08:30:00","38353","1.44","116.3","1.829","106.0","NAN","NAN","NAN","NAN","NAN"],
    [1752518,"2026-09-04 08:40:00","38354","1.6869999999999998","95.1","2.0580000000000003","90.2","NAN","NAN","NAN","NAN","NAN"],
    [1752519,"2026-09-04 08:50:00","38355","1.6480000000000001","99.6","2.548","132.8","NAN","NAN","NAN","NAN","NAN"],
    [1752520,"2026-09-04 09:00:00","38356","1.966","136.5","3.267","152.5","NAN","NAN","NAN","NAN","NAN"],
    [1752521,"2026-09-04 09:10:00","38357","3.535","174.8","4.377","185.3","NAN","NAN","NAN","NAN","NAN"],
    [1752522,"2026-09-04 09:20:00","38358","4.399","188.5","5.031000000000001","190.3","NAN","NAN","NAN","NAN","NAN"],
    [1752523,"2026-09-04 09:30:00","38359","4.9719999999999995","185.0","5.815","189.5","NAN","NAN","NAN","NAN","NAN"],
    [1752524,"2026-09-04 09:40:00","38360","5.431","187.3","6.109","191.1","NAN","NAN","NAN","NAN","NAN"],
    [1752525,"2026-09-04 09:50:00","38361","6.016","189.1","6.631","190.4","NAN","NAN","NAN","NAN","NAN"],
    [1752526,"2026-09-04 10:00:00","38362","6.6129999999999995","190.7","7.382999999999999","191.2","NAN","NAN","NAN","NAN","NAN"],
    [1752527,"2026-09-04 10:10:00","38363","7.289","191.7","7.938","195.7","NAN","NAN","NAN","NAN","NAN"],
    [1752528,"2026-09-04 10:20:00","38364","7.375","191.6","7.971","188.7","NAN","NAN","NAN","NAN","NAN"],
    [1752529,"2026-09-04 10:30:00","38365","6.952999999999999","192.5","7.807","192.7","NAN","NAN","NAN","NAN","NAN"],
    [1752530,"2026-09-04 10:40:00","38366","6.77","194.1","7.872999999999999","197.5","NAN","NAN","NAN","NAN","NAN"],
    [1752531,"2026-09-04 10:50:00","38367","6.907","196.7","7.905","200.6","NAN","NAN","NAN","NAN","NAN"],
    [1752532,"2026-09-04 11:00:00","38368","6.497999999999999","198.6","7.644","200.7","NAN","NAN","NAN","NAN","NAN"],
    [1752533,"2026-09-04 11:10:00","38369","6.72","196.8","7.579","203.9","NAN","NAN","NAN","NAN","NAN"],
    [1752534,"2026-09-04 11:20:00","38370","6.558","201.0","8.04","205.7","NAN","NAN","NAN","NAN","NAN"],
    [1752535,"2026-09-04 11:30:00","38371","7.039","199.4","8.3","201.8","NAN","NAN","NAN","NAN","NAN"],
    [1752536,"2026-09-04 11:40:00","38372","7.271","199.1","8.79","202.8","NAN","NAN","NAN","NAN","NAN"],
    [1752537,"2026-09-04 11:50:00","38373","7.2410000000000005","199.0","8.4","201.5","NAN","NAN","NAN","NAN","NAN"],
    [1752538,"2026-09-04 12:00:00","38374","7.1979999999999995","197.9","8.46","200.2","NAN","NAN","NAN","NAN","NAN"],
    [1752539,"2026-09-04 12:10:00","38375","7.28","197.3","9.02","205.0","NAN","NAN","NAN","NAN","NAN"],
    [1752540,"2026-09-04 12:20:00","38376","7.329","201.1","9.05","198.7","NAN","NAN","NAN","NAN","NAN"],
    [1752541,"2026-09-04 12:30:00","38377","7.619","203.9","9.7","198.5","NAN","NAN","NAN","NAN","NAN"],
    [1752542,"2026-09-04 12:40:00","38378","7.122000000000001","206.2","9.57","201.7","NAN","NAN","NAN","NAN","NAN"],
    [1752543,"2026-09-04 12:50:00","38379","7.172999999999999","205.7","9.87","204.2","NAN","NAN","NAN","NAN","NAN"],
    [1752544,"2026-09-04 13:00:00","38380","6.079","210.3","9.34","206.1","NAN","NAN","NAN","NAN","NAN"],
    [1752545,"2026-09-04 13:10:00","38381","6.776","209.9","8.82","226.1","NAN","NAN","NAN","NAN","NAN"],
    [1752546,"2026-09-04 13:20:00","38382","6.28","208.0","8.75","201.8","NAN","NAN","NAN","NAN","NAN"],
    [1752547,"2026-09-04 13:30:00","38383","5.016","212.5","8.04","197.6","NAN","NAN","NAN","NAN","NAN"],
    [1752548,"2026-09-04 13:40:00","38384","7.734","201.2","9.28","196.9","NAN","NAN","NAN","NAN","NAN"],
    [1752549,"2026-09-04 13:50:00","38385","7.706","201.4","9.6","204.8","NAN","NAN","NAN","NAN","NAN"],
    [1752550,"2026-09-04 14:00:00","38386","7.821000000000001","198.5","9.64","197.9","NAN","NAN","NAN","NAN","NAN"],
    [1752551,"2026-09-04 14:10:00","38387","8.3","196.5","9.41","194.1","NAN","NAN","NAN","NAN","NAN"],
    [1752552,"2026-09-04 14:20:00","38388","8.23","196.8","9.51","194.2","NAN","NAN","NAN","NAN","NAN"],
    [1752553,"2026-09-04 14:30:00","38389","7.586","195.4","9.57","204.3","NAN","NAN","NAN","NAN","NAN"],
    [1752554,"2026-09-04 14:40:00","38390","7.957000000000001","197.5","9.57","202.7","NAN","NAN","NAN","NAN","NAN"],
    [1752555,"2026-09-04 14:50:00","38391","7.974","198.8","9.77","199.3","NAN","NAN","NAN","NAN","NAN"],
    [1752556,"2026-09-04 15:00:00","38392","7.78","204.1","9.83","200.3","NAN","NAN","NAN","NAN","NAN"],
    [1752557,"2026-09-04 15:10:00","38393","8.15","201.5","10.03","202.6","NAN","NAN","NAN","NAN","NAN"],
    [1752558,"2026-09-04 15:20:00","38394","8.21","202.5","9.83","198.7","NAN","NAN","NAN","NAN","NAN"],
    [1752559,"2026-09-04 15:30:00","38395","8.05","202.5","9.67","199.1","NAN","NAN","NAN","NAN","NAN"],
    [1752560,"2026-09-04 15:40:00","38396","7.755","202.0","9.7","197.7","NAN","NAN","NAN","NAN","NAN"],
    [1752561,"2026-09-04 15:50:00","38397","8.06","200.8","9.54","199.3","NAN","NAN","NAN","NAN","NAN"],
    [1752562,"2026-09-04 16:00:00","38398","8.67","199.0","10.26","201.7","NAN","NAN","NAN","NAN","NAN"],
    [1752563,"2026-09-04 16:10:00","38399","7.84","202.7","10.16","206.9","NAN","NAN","NAN","NAN","NAN"],
    [1752564,"2026-09-04 16:20:00","38400","6.811","202.6","8.79","201.1","NAN","NAN","NAN","NAN","NAN"],
    [1752565,"2026-09-04 16:30:00","38401","5.71","202.3","7.807","199.7","NAN","NAN","NAN","NAN","NAN"],
    [1752566,"2026-09-04 16:40:00","38402","5.438","196.8","6.827000000000001","201.5","NAN","NAN","NAN","NAN","NAN"],
    [1752567,"2026-09-04 16:50:00","38403","5.617000000000001","196.8","7.611000000000001","199.8","NAN","NAN","NAN","NAN","NAN"],
    [1752568,"2026-09-04 17:00:00","38404","5.712999999999999","197.0","8.17","199.8","NAN","NAN","NAN","NAN","NAN"],
    [1752569,"2026-09-04 17:10:00","38405","5.79","198.8","7.481","206.6","NAN","NAN","NAN","NAN","NAN"],
    [1752570,"2026-09-04 17:20:00","38406","5.182","194.7","6.729","202.8","NAN","NAN","NAN","NAN","NAN"],
    [1752571,"2026-09-04 17:30:00","38407","4.846","201.7","6.468","199.6","NAN","NAN","NAN","NAN","NAN"],
    [1752572,"2026-09-04 17:40:00","38408","3.9360000000000004","203.9","5.39","199.4","NAN","NAN","NAN","NAN","NAN"],
    [1752573,"2026-09-04 17:50:00","38409","3.694","209.0","5.912999999999999","197.0","NAN","NAN","NAN","NAN","NAN"],
    [1752574,"2026-09-04 18:00:00","38410","4.533","199.9","5.651","203.1","NAN","NAN","NAN","NAN","NAN"],
    [1752575,"2026-09-04 18:10:00","38411","3.9360000000000004","198.3","5.129","205.4","NAN","NAN","NAN","NAN","NAN"],
    [1752576,"2026-09-04 18:20:00","38412","3.0010000000000003","215.9","4.671","206.5","NAN","NAN","NAN","NAN","NAN"],
    [1752577,"2026-09-04 18:30:00","38413","3.8680000000000003","227.1","5.553","227.9","NAN","NAN","NAN","NAN","NAN"],
    [1752578,"2026-09-04 18:40:00","38414","4.043","223.3","6.272","228.2","NAN","NAN","NAN","NAN","NAN"],
    [1752579,"2026-09-04 18:50:00","38415","4.209","226.6","6.239","231.2","NAN","NAN","NAN","NAN","NAN"],
    [1752580,"2026-09-04 19:00:00","38416","3.878","222.9","5.521","229.3","NAN","NAN","NAN","NAN","NAN"],
    [1752581,"2026-09-04 19:10:00","38417","4.186","224.7","5.88","227.6","NAN","NAN","NAN","NAN","NAN"],
    [1752582,"2026-09-04 19:20:00","38418","3.597","224.6","5.227","213.7","NAN","NAN","NAN","NAN","NAN"],
    [1752583,"2026-09-04 19:30:00","38419","3.9819999999999998","231.1","6.501","240.2","NAN","NAN","NAN","NAN","NAN"],
    [1752584,"2026-09-04 19:40:00","38420","3.763","231.8","6.141","214.6","NAN","NAN","NAN","NAN","NAN"],
    [1752585,"2026-09-04 19:50:00","38421","4.101","234.0","6.403","239.9","NAN","NAN","NAN","NAN","NAN"],
    [1752586,"2026-09-04 20:00:00","38422","5.153","230.5","7.285","236.5","NAN","NAN","NAN","NAN","NAN"],
    [1752587,"2026-09-04 20:10:00","38423","5.5","231.4","6.729","239.0","NAN","NAN","NAN","NAN","NAN"],
    [1752588,"2026-09-04 20:20:00","38424","4.502","232.8","6.109","229.3","NAN","NAN","NAN","NAN","NAN"],
    [1752589,"2026-09-04 20:30:00","38425","4.669","236.5","6.305","239.8","NAN","NAN","NAN","NAN","NAN"],
    [1752590,"2026-09-04 20:40:00","38426","5.096","237.5","6.925","238.7","NAN","NAN","NAN","NAN","NAN"],
    [1752591,"2026-09-04 20:50:00","38427","2.94","241.4","5.847","228.8","NAN","NAN","NAN","NAN","NAN"],
    [1752592,"2026-09-04 21:00:00","38428","3.6889999999999996","239.1","6.042999999999999","233.4","NAN","NAN","NAN","NAN","NAN"],
    [1752593,"2026-09-04 21:10:00","38429","3.305","242.4","5.586","238.6","NAN","NAN","NAN","NAN","NAN"],
    [1752594,"2026-09-04 21:20:00","38430","3.217","237.1","7.285","250.6","NAN","NAN","NAN","NAN","NAN"],
    [1752595,"2026-09-04 21:30:00","38431","3.4","237.4","5.194","267.3","NAN","NAN","NAN","NAN","NAN"],
    [1752596,"2026-09-04 21:40:00","38432","3.858","235.7","6.664","228.5","NAN","NAN","NAN","NAN","NAN"],
    [1752597,"2026-09-04 21:50:00","38433","3.1660000000000004","243.2","5.782","229.1","NAN","NAN","NAN","NAN","NAN"],
    [1752598,"2026-09-04 22:00:00","38434","3.605","235.3","6.599","227.7","NAN","NAN","NAN","NAN","NAN"],
    [1752599,"2026-09-04 22:10:00","38435","4.658","237.7","6.305","237.8","NAN","NAN","NAN","NAN","NAN"],
    [1752600,"2026-09-04 22:20:00","38436","3.9939999999999998","227.1","6.468","230.7","NAN","NAN","NAN","NAN","NAN"],
    [1752601,"2026-09-04 22:30:00","38437","3.53","229.0","5.1610000000000005","220.2","NAN","NAN","NAN","NAN","NAN"],
    [1752602,"2026-09-04 22:40:00","38438","3.625","230.2","5.129","228.3","NAN","NAN","NAN","NAN","NAN"],
    [1752603,"2026-09-04 22:50:00","38439","2.7","224.6","3.659","222.4","NAN","NAN","NAN","NAN","NAN"],
    [1752604,"2026-09-04 23:00:00","38440","3.793","235.9","4.573","235.6","NAN","NAN","NAN","NAN","NAN"],
    [1752605,"2026-09-04 23:10:00","38441","3.909","239.8","4.606","235.9","NAN","NAN","NAN","NAN","NAN"],
    [1752606,"2026-09-04 23:20:00","38442","3.677","236.6","4.4430000000000005","238.9","NAN","NAN","NAN","NAN","NAN"],
    [1752607,"2026-09-04 23:30:00","38443","2.1790000000000003","226.8","3.9530000000000003","232.2","NAN","NAN","NAN","NAN","NAN"],
    [1752608,"2026-09-04 23:40:00","38444","3.168","231.6","4.4430000000000005","226.5","NAN","NAN","NAN","NAN","NAN"],
    [1752609,"2026-09-04 23:50:00","38445","3.0439999999999996","227.6","4.965","234.9","NAN","NAN","NAN","NAN","NAN"],
    [1752610,"2026-09-05 00:00:00","38446","2.6260000000000003","221.7","4.2139999999999995","230.0","NAN","NAN","NAN","NAN","NAN"],
    [1752611,"2026-09-05 00:10:00","38447","2.925","228.1","4.083","232.2","NAN","NAN","NAN","NAN","NAN"],
    [1752612,"2026-09-05 00:20:00","38448","2.376","231.0","3.365","232.4","NAN","NAN","NAN","NAN","NAN"],
    [1752613,"2026-09-05 00:30:00","38449","2.323","237.0","3.071","238.8","NAN","NAN","NAN","NAN","NAN"],
    [1752614,"2026-09-05 00:40:00","38450","2.322","234.4","2.9730000000000003","232.5","NAN","NAN","NAN","NAN","NAN"],
    [1752615,"2026-09-05 00:50:00","38451","1.476","243.8","2.385","243.2","NAN","NAN","NAN","NAN","NAN"],
    [1752616,"2026-09-05 01:00:00","38452","1.514","239.7","2.156","233.5","NAN","NAN","NAN","NAN","NAN"],
    [1752617,"2026-09-05 01:10:00","38453","1.4269999999999998","240.1","1.96","238.2","NAN","NAN","NAN","NAN","NAN"],
    [1752618,"2026-09-05 01:20:00","38454","0.6829999999999999","238.4","1.307","242.3","NAN","NAN","NAN","NAN","NAN"],
    [1752619,"2026-09-05 01:30:00","38455","0.36","235.3","0.915","232.2","NAN","NAN","NAN","NAN","NAN"],
    [1752620,"2026-09-05 01:40:00","38456","0.478","232.6","0.915","237.4","NAN","NAN","NAN","NAN","NAN"],
    [1752621,"2026-09-05 01:50:00","38457","0.602","231.3","0.98","231.0","NAN","NAN","NAN","NAN","NAN"],
    [1752622,"2026-09-05 02:00:00","38458","0.732","229.8","1.274","230.2","NAN","NAN","NAN","NAN","NAN"],
    [1752623,"2026-09-05 02:10:00","38459","0.379","228.6","0.784","230.0","NAN","NAN","NAN","NAN","NAN"],
    [1752624,"2026-09-05 02:20:00","38460","0.601","231.0","1.045","229.3","NAN","NAN","NAN","NAN","NAN"],
    [1752625,"2026-09-05 02:30:00","38461","0.506","246.0","0.9470000000000001","246.1","NAN","NAN","NAN","NAN","NAN"],
    [1752626,"2026-09-05 02:40:00","38462","0.48700000000000004","231.8","1.307","230.4","NAN","NAN","NAN","NAN","NAN"],
    [1752627,"2026-09-05 02:50:00","38463","0.389","243.7","1.209","235.5","NAN","NAN","NAN","NAN","NAN"],
    [1752628,"2026-09-05 03:00:00","38464","0.01","246.3","0.294","246.2","NAN","NAN","NAN","NAN","NAN"],
    [1752629,"2026-09-05 03:10:00","38465","0.322","247.8","1.2409999999999999","249.0","NAN","NAN","NAN","NAN","NAN"],
    [1752630,"2026-09-05 03:20:00","38466","0.7290000000000001","256.6","1.4369999999999998","256.8","NAN","NAN","NAN","NAN","NAN"],
    [1752631,"2026-09-05 03:30:00","38467","1.222","274.5","2.156","54.03","NAN","NAN","NAN","NAN","NAN"],
    [1752632,"2026-09-05 03:40:00","38468","1.514","51.69","2.156","57.42","NAN","NAN","NAN","NAN","NAN"],
    [1752633,"2026-09-05 03:50:00","38469","1.436","51.32","2.123","59.38","NAN","NAN","NAN","NAN","NAN"],
    [1752634,"2026-09-05 04:00:00","38470","1.2690000000000001","41.28","2.385","41.21","NAN","NAN","NAN","NAN","NAN"],
    [1752635,"2026-09-05 04:10:00","38471","0.625","57.23","1.3719999999999999","47.01","NAN","NAN","NAN","NAN","NAN"],
    [1752636,"2026-09-05 04:20:00","38472","0.086","58.44","0.392","58.38","NAN","NAN","NAN","NAN","NAN"],
    [1752637,"2026-09-05 04:30:00","38473","0.0","0.0","0.0","0.0","NAN","NAN","NAN","NAN","NAN"],
    [1752638,"2026-09-05 04:40:00","38474","0.1","58.51","0.588","58.48","NAN","NAN","NAN","NAN","NAN"],
    [1752639,"2026-09-05 04:50:00","38475","0.622","94.1","1.764","62.77","NAN","NAN","NAN","NAN","NAN"],
    [1752640,"2026-09-05 05:00:00","38476","1.735","215.6","3.005","232.1","NAN","NAN","NAN","NAN","NAN"],
    [1752641,"2026-09-05 05:10:00","38477","1.682","231.4","2.842","234.3","NAN","NAN","NAN","NAN","NAN"],
    [1752642,"2026-09-05 05:20:00","38478","1.1159999999999999","224.4","2.254","231.8","NAN","NAN","NAN","NAN","NAN"],
    [1752643,"2026-09-05 05:30:00","38479","1.396","233.1","2.189","235.6","NAN","NAN","NAN","NAN","NAN"],
    [1752644,"2026-09-05 05:40:00","38480","1.52","243.2","2.483","250.0","NAN","NAN","NAN","NAN","NAN"],
    [1752645,"2026-09-05 05:50:00","38481","0.614","249.7","2.025","248.4","NAN","NAN","NAN","NAN","NAN"],
    [1752646,"2026-09-05 06:00:00","38482","0.002","244.3","0.196","244.6","NAN","NAN","NAN","NAN","NAN"],
    [1752647,"2026-09-05 06:10:00","38483","0.006","242.8","0.196","243.5","NAN","NAN","NAN","NAN","NAN"],
    [1752648,"2026-09-05 06:20:00","38484","0.128","250.8","1.2409999999999999","252.3","NAN","NAN","NAN","NAN","NAN"],
    [1752649,"2026-09-05 06:30:00","38485","0.0","0.0","0.0","0.0","NAN","NAN","NAN","NAN","NAN"],
    [1752650,"2026-09-05 06:40:00","38486","0.371","224.6","1.045","224.9","NAN","NAN","NAN","NAN","NAN"],
    [1752651,"2026-09-05 06:50:00","38487","0.14","223.7","0.784","223.8","NAN","NAN","NAN","NAN","NAN"],
    [1752652,"2026-09-05 07:00:00","38488","0.239","236.4","1.209","233.4","NAN","NAN","NAN","NAN","NAN"],
    [1752653,"2026-09-05 07:10:00","38489","0.034","222.2","0.49","222.2","NAN","NAN","NAN","NAN","NAN"],
    [1752654,"2026-09-05 07:20:00","38490","0.07","222.1","0.555","222.1","NAN","NAN","NAN","NAN","NAN"],
    [1752655,"2026-09-05 07:30:00","38491","0.0","0.0","0.0","0.0","NAN","NAN","NAN","NAN","NAN"],
    [1752656,"2026-09-05 07:40:00","38492","0.0","0.0","0.0","0.0","NAN","NAN","NAN","NAN","NAN"],
    [1752657,"2026-09-05 07:50:00","38493","0.0","0.0","0.0","0.0","NAN","NAN","NAN","NAN","NAN"],
    [1752658,"2026-09-05 08:00:00","38494","0.0","0.0","0.0","0.0","NAN","NAN","NAN","NAN","NAN"],
    [1752659,"2026-09-05 08:10:00","38495","0.0","0.0","0.0","0.0","NAN","NAN","NAN","NAN","NAN"],
    [1752660,"2026-09-05 08:20:00","38496","0.0","221.7","0.065","221.7","NAN","NAN","NAN","NAN","NAN"],
    [1752661,"2026-09-05 08:30:00","38497","0.009000000000000001","221.7","0.261","221.7","NAN","NAN","NAN","NAN","NAN"],
    [1752662,"2026-09-05 08:40:00","38498","0.0","0.0","0.0","0.0","NAN","NAN","NAN","NAN","NAN"],
    [1752663,"2026-09-05 08:50:00","38499","0.051","219.2","0.425","219.0","NAN","NAN","NAN","NAN","NAN"],
    [1752664,"2026-09-05 09:00:00","38500","0.41200000000000003","218.1","0.784","218.2","NAN","NAN","NAN","NAN","NAN"],
    [1752665,"2026-09-05 09:10:00","38501","0.0","0.0","0.0","0.0","NAN","NAN","NAN","NAN","NAN"],
    [1752666,"2026-09-05 09:20:00","38502","0.081","217.0","0.425","217.1","NAN","NAN","NAN","NAN","NAN"],
    [1752667,"2026-09-05 09:30:00","38503","0.033","215.6","0.555","215.7","NAN","NAN","NAN","NAN","NAN"],
    [1752668,"2026-09-05 09:40:00","38504","0.0","0.0","0.0","0.0","NAN","NAN","NAN","NAN","NAN"],
    [1752669,"2026-09-05 09:50:00","38505","0.0","0.0","0.0","0.0","NAN","NAN","NAN","NAN","NAN"],
    [1752670,"2026-09-05 10:00:00","38506","0.003","215.4","0.196","215.4","NAN","NAN","NAN","NAN","NAN"],
    [1752671,"2026-09-05 10:10:00","38507","0.0","0.0","0.0","0.0","NAN","NAN","NAN","NAN","NAN"],
    [1752672,"2026-09-05 10:20:00","38508","0.0","0.0","0.0","0.0","NAN","NAN","NAN","NAN","NAN"],
    [1752673,"2026-09-05 10:30:00","38509","0.155","213.3","0.523","213.2","NAN","NAN","NAN","NAN","NAN"],
    [1752674,"2026-09-05 10:40:00","38510","0.133","213.2","0.49","213.2","NAN","NAN","NAN","NAN","NAN"],
    [1752675,"2026-09-05 10:50:00","38511","0.008","213.2","0.22899999999999998","213.2","NAN","NAN","NAN","NAN","NAN"],
    [1752676,"2026-09-05 11:00:00","38512","0.0","0.0","0.0","0.0","NAN","NAN","NAN","NAN","NAN"],
    [1752677,"2026-09-05 11:10:00","38513","0.0","0.0","0.0","0.0","NAN","NAN","NAN","NAN","NAN"],
    [1752678,"2026-09-05 11:20:00","38514","0.0","0.0","0.0","0.0","NAN","NAN","NAN","NAN","NAN"],
    [1752679,"2026-09-05 11:30:00","38515","0.0","0.0","0.0","0.0","NAN","NAN","NAN","NAN","NAN"],
    [1752680,"2026-09-05 11:40:00","38516","0.0","0.0","0.0","0.0","NAN","NAN","NAN","NAN","NAN"],
    [1752681,"2026-09-05 11:50:00","38517","0.055","182.5","0.784","180.6","NAN","NAN","NAN","NAN","NAN"],
    [1752682,"2026-09-05 12:00:00","38518","0.196","169.6","1.045","168.7","NAN","NAN","NAN","NAN","NAN"],
    [1752683,"2026-09-05 12:10:00","38519","0.607","145.1","1.339","143.9","NAN","NAN","NAN","NAN","NAN"]
]}
